Hlavní strana
METAR-TAF:

METAR-TAF

Letiště :

Perugia, Itálie

zeměpisná šířka: 43-05N, zeměpisná délka: 012-30E, výška: 208 m

Aktuální stav počasí

Zpráva byla vytvořena před 8 hodinami a 52 minutami, v 18:50 UTC
Severoseverovýchodní vítr 5 kt
Teplota 29°C
Vlhkost vzduchu 43%
Tlak 1012 hPa
Viditelnost 10 km a více
Žádná oblačnost pod 1500 m, nevyskytují se cumulonimby.

METAR: LIRZ 151850Z AUTO 02005KT CAVOK 29/15 Q1012

Čas: 05:42 (03:42 UTC)

Předpověď počasí

Zpráva byla vytvořena před 10 hodinami a 42 minutami, v 17:00 UTC
Předpověď platná od 15 v 18 UTC do 16 v 18 UTC
vítr z různých směrů 5 kt
Viditelnost 10 km a více
Žádná oblačnost pod 1500 m, nevyskytují se cumulonimby.
Změna
od 16 v 08 UTC do 16 v 10 UTC
Západojihozápadní vítr 10 kt

TAF: LIRZ 151700Z 1518/1618 VRB05KT CAVOK BECMG 1608/1610 24010KT

Stav a předpovědi počasí z více než 4 000 letišť (zprávy METAR a TAF).

Červené a žluté tečky na mapě představují dostupné meteorologické stanice.

Když kurzor umístíte na tečku, zobrazí se název stanice.

Pak kliknutím zobrazíte stav a předpověď počasí.

Chcete-li změnit mapu, kliknutím na zelené tlačítko se znaménkem +mapu přiblížíte, kliknutím na zelené tlačítko se znaménkem – mapu oddálíte a kliknutím na zelené šipky přejdete na sousední mapy.


METAR-TAF: